createdAt,value
2022-10-05T00:01:36.987Z,101753.91
2022-10-05T00:04:59.311Z,101735.34
2022-10-05T00:08:24.425Z,101743.59
2022-10-05T00:11:46.463Z,101751.84
2022-10-05T00:15:13.407Z,101751.19
2022-10-05T00:18:35.001Z,101742.56
2022-10-05T00:21:58.139Z,101742.78
2022-10-05T00:25:22.915Z,101735.97
2022-10-05T00:28:44.623Z,101743.38
2022-10-05T00:32:06.536Z,101729.28
2022-10-05T00:35:29.385Z,101746.28
2022-10-05T00:38:51.126Z,101744.56
2022-10-05T00:42:30.883Z,101736.66
2022-10-05T00:45:57.886Z,101739.34
2022-10-05T00:49:38.117Z,101727.91
2022-10-05T00:53:07.075Z,101726.84
2022-10-05T00:56:49.970Z,101727.69
2022-10-05T01:00:16.990Z,101721.84
2022-10-05T01:03:50.549Z,101708.16
2022-10-05T01:07:20.563Z,101707.19
2022-10-05T01:10:48.611Z,101708.03
2022-10-05T01:14:17.731Z,101700.03
2022-10-05T01:17:46.725Z,101707.06
2022-10-05T01:21:18.553Z,101714.00
2022-10-05T01:24:58.821Z,101712.19
2022-10-05T01:28:25.425Z,101719.34
2022-10-05T01:31:53.664Z,101707.06
2022-10-05T01:35:25.964Z,101716.19
2022-10-05T01:38:57.904Z,101699.66
2022-10-05T01:42:31.430Z,101712.38
2022-10-05T01:46:01.981Z,101703.72
2022-10-05T01:49:38.124Z,101713.81
2022-10-05T01:53:08.978Z,101704.41
2022-10-05T01:56:39.402Z,101702.22
2022-10-05T02:00:07.649Z,101710.78
2022-10-05T02:03:46.110Z,101710.41
2022-10-05T02:07:11.504Z,101715.41
2022-10-05T02:10:37.542Z,101711.41
2022-10-05T02:14:03.513Z,101716.31
2022-10-05T02:17:31.919Z,101716.97
2022-10-05T02:20:59.470Z,101719.22
2022-10-05T02:24:25.988Z,101705.38
2022-10-05T02:27:51.349Z,101720.00
2022-10-05T02:31:16.707Z,101717.97
2022-10-05T02:34:40.704Z,101718.50
2022-10-05T02:38:27.404Z,101718.84
2022-10-05T02:41:56.990Z,101713.97
2022-10-05T02:45:29.086Z,101708.09
2022-10-05T02:49:02.582Z,101707.69
2022-10-05T02:52:30.993Z,101701.81
2022-10-05T02:56:06.466Z,101708.28
2022-10-05T02:59:32.983Z,101707.63
2022-10-05T03:03:07.165Z,101703.16
2022-10-05T03:06:33.790Z,101701.56
2022-10-05T03:10:02.618Z,101691.88
2022-10-05T03:13:37.081Z,101697.19
2022-10-05T03:17:11.797Z,101690.16
2022-10-05T03:20:42.097Z,101685.59
2022-10-05T03:24:20.299Z,101689.00
2022-10-05T03:27:46.205Z,101680.13
2022-10-05T03:31:20.052Z,101676.72
2022-10-05T03:34:47.506Z,101666.09
2022-10-05T03:38:15.845Z,101644.78
2022-10-05T03:41:43.521Z,101650.84
2022-10-05T03:45:11.149Z,101651.59
2022-10-05T03:48:41.194Z,101642.50
2022-10-05T03:52:08.217Z,101644.94
2022-10-05T03:55:36.887Z,101634.81
2022-10-05T03:59:04.339Z,101634.69
2022-10-05T04:02:30.441Z,101643.94
2022-10-05T04:05:56.327Z,101644.34
2022-10-05T04:09:23.906Z,101628.88
2022-10-05T04:12:50.407Z,101635.59
2022-10-05T04:16:16.056Z,101637.09
2022-10-05T04:19:41.609Z,101626.09
2022-10-05T04:23:15.819Z,101633.75
2022-10-05T04:26:44.451Z,101644.91
2022-10-05T04:30:12.411Z,101636.81
2022-10-05T04:33:34.864Z,101639.38
2022-10-05T04:37:02.322Z,101637.56
2022-10-05T04:40:39.493Z,101641.94
2022-10-05T04:44:18.205Z,101648.97
2022-10-05T04:48:12.075Z,101651.53
2022-10-05T04:51:46.573Z,101650.34
2022-10-05T04:55:22.941Z,101648.75
2022-10-05T04:59:01.830Z,101653.97
2022-10-05T05:02:33.293Z,101658.34
2022-10-05T05:06:18.344Z,101657.59
2022-10-05T05:10:07.769Z,101657.59
2022-10-05T05:13:52.519Z,101650.44
2022-10-05T05:17:32.105Z,101663.91
2022-10-05T05:21:03.276Z,101644.28
2022-10-05T05:24:41.437Z,101646.81
2022-10-05T05:28:18.544Z,101639.03
2022-10-05T05:31:48.231Z,101642.56
2022-10-05T05:35:29.395Z,101645.97
2022-10-05T05:39:01.640Z,101625.25
2022-10-05T05:42:38.387Z,101624.19
2022-10-05T05:46:01.910Z,101622.25
2022-10-05T05:49:34.232Z,101615.72
2022-10-05T05:53:02.165Z,101628.84
2022-10-05T05:56:32.572Z,101625.19
2022-10-05T06:00:05.502Z,101633.09
2022-10-05T06:03:39.723Z,101638.22
2022-10-05T06:07:06.014Z,101643.41
2022-10-05T06:10:36.524Z,101634.44
2022-10-05T06:14:12.419Z,101632.41
2022-10-05T06:17:40.137Z,101626.84
2022-10-05T06:21:07.880Z,101639.13
2022-10-05T06:24:35.821Z,101629.19
2022-10-05T06:28:04.577Z,101641.31
2022-10-05T06:31:54.173Z,101645.56
2022-10-05T06:35:27.724Z,101650.66
2022-10-05T06:39:30.118Z,101647.03
2022-10-05T06:43:06.711Z,101643.06
2022-10-05T06:46:33.132Z,101636.53
2022-10-05T06:50:33.849Z,101629.00
2022-10-05T06:54:26.803Z,101640.31
2022-10-05T06:58:01.198Z,101641.78
2022-10-05T07:01:38.455Z,101638.88
2022-10-05T07:05:26.529Z,101629.66
2022-10-05T07:09:04.011Z,101631.03
2022-10-05T07:12:59.754Z,101629.72
2022-10-05T07:16:32.456Z,101643.34
2022-10-05T07:20:04.853Z,101643.94
2022-10-05T07:23:43.891Z,101638.13
2022-10-05T07:27:13.531Z,101655.41
2022-10-05T07:30:44.612Z,101645.19
2022-10-05T07:34:10.837Z,101636.47
2022-10-05T07:37:57.734Z,101653.69
2022-10-05T07:41:31.206Z,101657.59
2022-10-05T07:44:59.408Z,101658.09
2022-10-05T07:48:23.649Z,101648.63
2022-10-05T07:51:49.379Z,101641.31
2022-10-05T07:55:20.186Z,101649.81
2022-10-05T07:58:47.412Z,101643.25
2022-10-05T08:02:22.679Z,101644.59
2022-10-05T08:05:47.225Z,101631.94
2022-10-05T08:09:24.061Z,101633.97
2022-10-05T08:13:04.080Z,101638.00
2022-10-05T08:16:32.362Z,101639.34
2022-10-05T08:20:02.250Z,101617.44
2022-10-05T08:23:29.271Z,101620.56
2022-10-05T08:26:56.375Z,101610.34
2022-10-05T08:30:20.421Z,101606.44
2022-10-05T08:33:52.607Z,101608.47
2022-10-05T08:37:19.839Z,101603.47
2022-10-05T08:41:10.718Z,101599.56
2022-10-05T08:45:07.981Z,101593.00
2022-10-05T08:48:59.272Z,101587.13
2022-10-05T08:52:29.125Z,101586.75
2022-10-05T08:56:08.330Z,101589.63
2022-10-05T08:59:58.642Z,101580.97
2022-10-05T09:03:36.690Z,101585.91
2022-10-05T09:07:14.665Z,101584.53
2022-10-05T09:11:03.653Z,101595.44
2022-10-05T09:15:07.150Z,101588.72
2022-10-05T09:19:05.551Z,101589.00
2022-10-05T09:22:53.619Z,101590.47
2022-10-05T09:26:44.201Z,101595.13
2022-10-05T09:30:27.112Z,101592.19
2022-10-05T09:34:26.097Z,101587.03
2022-10-05T09:38:19.639Z,101588.31
2022-10-05T09:42:07.722Z,101579.72
2022-10-05T09:46:13.894Z,101578.50
2022-10-05T09:49:53.607Z,101578.66
2022-10-05T09:53:44.872Z,101577.69
2022-10-05T09:57:40.813Z,101567.25
2022-10-05T10:01:32.681Z,101564.91
2022-10-05T10:05:09.309Z,101559.13
2022-10-05T10:08:43.516Z,101556.03
2022-10-05T10:12:28.777Z,101560.84
2022-10-05T10:16:11.913Z,101558.56
2022-10-05T10:19:58.978Z,101564.53
2022-10-05T10:23:30.638Z,101569.03
2022-10-05T10:27:16.587Z,101576.50
2022-10-05T10:31:01.645Z,101567.34
2022-10-05T10:34:58.884Z,101568.34
2022-10-05T10:38:41.314Z,101580.91
2022-10-05T10:42:35.329Z,101573.28
2022-10-05T10:46:03.176Z,101578.94
2022-10-05T10:49:43.001Z,101566.75
2022-10-05T10:53:32.621Z,101564.22
2022-10-05T10:57:06.781Z,101566.16
2022-10-05T11:00:41.921Z,101558.69
2022-10-05T11:04:37.171Z,101550.75
2022-10-05T11:08:32.323Z,101562.59
2022-10-05T11:12:33.560Z,101557.38
2022-10-05T11:16:33.273Z,101545.19
2022-10-05T11:20:17.850Z,101544.16
2022-10-05T11:23:57.828Z,101533.50
2022-10-05T11:27:47.594Z,101523.56
2022-10-05T11:32:06.110Z,101516.13
2022-10-05T11:35:57.148Z,101524.44
2022-10-05T11:39:33.089Z,101514.25
2022-10-05T11:43:15.316Z,101505.72
2022-10-05T11:46:46.089Z,101500.56
2022-10-05T11:50:21.382Z,101498.81
2022-10-05T11:53:50.293Z,101485.44
2022-10-05T11:57:17.659Z,101490.88
2022-10-05T12:00:43.578Z,101483.75
2022-10-05T12:04:18.343Z,101479.47
2022-10-05T12:07:48.783Z,101478.81
2022-10-05T12:11:26.849Z,101480.53
2022-10-05T12:14:57.510Z,101477.69
2022-10-05T12:18:24.877Z,101468.28
2022-10-05T12:21:52.624Z,101478.56
2022-10-05T12:25:26.663Z,101483.34
2022-10-05T12:28:54.335Z,101466.72
2022-10-05T12:32:20.894Z,101465.38
2022-10-05T12:35:50.439Z,101465.47
2022-10-05T12:39:22.636Z,101459.56
2022-10-05T12:42:55.074Z,101456.41
2022-10-05T12:46:24.380Z,101452.41
2022-10-05T12:50:04.309Z,101455.63
2022-10-05T12:53:39.325Z,101446.72
2022-10-05T12:57:07.628Z,101455.34
2022-10-05T13:00:35.137Z,101446.75
2022-10-05T13:04:05.961Z,101436.69
2022-10-05T13:07:44.897Z,101432.66
2022-10-05T13:11:16.118Z,101431.66
2022-10-05T13:14:50.223Z,101431.81
2022-10-05T13:18:23.195Z,101433.00
2022-10-05T13:22:20.630Z,101424.19
2022-10-05T13:25:51.660Z,101418.84
2022-10-05T13:29:20.043Z,101422.91
2022-10-05T13:32:45.028Z,101419.56
2022-10-05T13:36:17.303Z,101418.44
2022-10-05T13:39:54.846Z,101415.91
2022-10-05T13:43:24.049Z,101427.38
2022-10-05T13:46:50.315Z,101424.53
2022-10-05T13:50:20.051Z,101411.03
2022-10-05T13:53:49.104Z,101407.84
2022-10-05T13:57:19.320Z,101402.63
2022-10-05T14:00:47.996Z,101399.13
2022-10-05T14:04:17.866Z,101393.72
2022-10-05T14:07:49.333Z,101391.03
2022-10-05T14:11:27.662Z,101373.66
2022-10-05T14:14:51.724Z,101373.16
2022-10-05T14:18:25.246Z,101361.69
2022-10-05T14:21:53.400Z,101368.97
2022-10-05T14:25:18.269Z,101360.19
2022-10-05T14:28:43.690Z,101361.38
2022-10-05T14:32:18.612Z,101361.72
2022-10-05T14:35:50.045Z,101359.34
2022-10-05T14:39:13.750Z,101339.44
2022-10-05T14:42:47.312Z,101356.16
2022-10-05T14:46:27.236Z,101336.91
2022-10-05T14:50:10.570Z,101341.63
2022-10-05T14:53:39.749Z,101329.28
2022-10-05T14:57:18.021Z,101324.94
2022-10-05T15:00:50.267Z,101326.75
2022-10-05T15:04:30.346Z,101326.91
2022-10-05T15:07:57.199Z,101329.59
2022-10-05T15:11:30.294Z,101315.44
2022-10-05T15:14:56.998Z,101318.28
2022-10-05T15:18:30.969Z,101324.81
2022-10-05T15:22:11.722Z,101324.13
2022-10-05T15:25:40.355Z,101324.47
2022-10-05T15:29:10.969Z,101323.50
2022-10-05T15:32:44.859Z,101323.22
2022-10-05T15:36:12.946Z,101327.91
2022-10-05T15:39:43.300Z,101328.69
2022-10-05T15:43:11.240Z,101332.78
2022-10-05T15:46:36.658Z,101333.31
2022-10-05T15:50:07.496Z,101321.44
2022-10-05T15:53:37.042Z,101323.13
2022-10-05T15:57:08.776Z,101320.75
2022-10-05T16:00:34.925Z,101325.09
2022-10-05T16:04:06.616Z,101321.16
2022-10-05T16:07:50.741Z,101325.13
2022-10-05T16:11:22.759Z,101324.16
2022-10-05T16:14:56.645Z,101321.69
2022-10-05T16:18:45.619Z,101315.47
2022-10-05T16:22:16.043Z,101317.00
2022-10-05T16:25:48.107Z,101317.88
2022-10-05T16:29:16.149Z,101321.44
2022-10-05T16:32:44.081Z,101323.28
2022-10-05T16:36:13.656Z,101320.06
2022-10-05T16:39:52.695Z,101324.69
2022-10-05T16:43:30.515Z,101322.13
2022-10-05T16:47:00.263Z,101319.22
2022-10-05T16:50:31.266Z,101325.56
2022-10-05T16:54:03.079Z,101326.47
2022-10-05T16:57:28.167Z,101324.38
2022-10-05T17:01:12.889Z,101323.56
2022-10-05T17:04:46.461Z,101324.47
2022-10-05T17:08:29.477Z,101328.72
2022-10-05T17:12:19.074Z,101335.19
2022-10-05T17:16:01.163Z,101336.13
2022-10-05T17:19:43.041Z,101343.41
2022-10-05T17:23:16.988Z,101350.69
2022-10-05T17:26:57.028Z,101352.59
2022-10-05T17:30:53.983Z,101351.97
2022-10-05T17:34:30.164Z,101354.00
2022-10-05T17:38:16.168Z,101355.34
2022-10-05T17:41:38.754Z,101365.28
2022-10-05T17:45:22.028Z,101363.78
2022-10-05T17:49:12.533Z,101359.75
2022-10-05T17:52:51.629Z,101362.59
2022-10-05T17:56:13.101Z,101355.72
2022-10-05T17:59:45.557Z,101355.03
2022-10-05T18:03:43.420Z,101349.84
2022-10-05T18:07:17.201Z,101358.84
2022-10-05T18:10:41.263Z,101360.69
2022-10-05T18:14:18.873Z,101354.50
2022-10-05T18:17:45.299Z,101355.34
2022-10-05T18:21:28.113Z,101352.81
2022-10-05T18:25:05.770Z,101351.81
2022-10-05T18:28:40.853Z,101344.47
2022-10-05T18:32:09.014Z,101346.28
2022-10-05T18:35:42.488Z,101339.09
2022-10-05T18:39:18.424Z,101345.13
2022-10-05T18:42:45.150Z,101339.63
2022-10-05T18:46:21.914Z,101333.28
2022-10-05T18:49:58.388Z,101325.91
2022-10-05T18:53:29.090Z,101335.47
2022-10-05T18:56:53.782Z,101344.19
2022-10-05T19:00:18.650Z,101337.75
2022-10-05T19:03:51.138Z,101343.53
2022-10-05T19:07:24.857Z,101337.00
2022-10-05T19:10:51.046Z,101343.59
2022-10-05T19:14:24.607Z,101349.63
2022-10-05T19:18:05.505Z,101354.50
2022-10-05T19:21:37.927Z,101351.53
2022-10-05T19:25:20.496Z,101351.91
2022-10-05T19:28:55.824Z,101351.75
2022-10-05T19:32:27.619Z,101361.25
2022-10-05T19:36:04.392Z,101362.63
2022-10-05T19:39:38.985Z,101371.00
2022-10-05T19:43:19.088Z,101375.91
2022-10-05T19:46:55.379Z,101368.28
2022-10-05T19:50:27.597Z,101374.88
2022-10-05T19:53:51.221Z,101385.81
2022-10-05T19:57:17.974Z,101378.75
2022-10-05T20:00:39.644Z,101378.63
2022-10-05T20:04:01.257Z,101386.13
2022-10-05T20:07:24.363Z,101381.97
2022-10-05T20:10:47.104Z,101389.34
2022-10-05T20:14:19.585Z,101391.47
2022-10-05T20:17:58.301Z,101395.03
2022-10-05T20:21:43.751Z,101405.66
2022-10-05T20:25:08.582Z,101398.41
2022-10-05T20:28:33.564Z,101403.94
2022-10-05T20:31:55.018Z,101413.75
2022-10-05T20:35:16.861Z,101420.13
2022-10-05T20:38:41.028Z,101419.59
2022-10-05T20:42:04.182Z,101419.91
2022-10-05T20:45:25.923Z,101420.78
2022-10-05T20:48:47.678Z,101423.75
2022-10-05T20:52:10.857Z,101432.09
2022-10-05T20:55:34.166Z,101427.06
2022-10-05T20:58:57.071Z,101427.47
2022-10-05T21:02:19.938Z,101432.00
2022-10-05T21:05:41.521Z,101430.03
2022-10-05T21:09:03.004Z,101425.81
2022-10-05T21:12:24.886Z,101433.44
2022-10-05T21:15:48.312Z,101434.75
2022-10-05T21:19:12.287Z,101430.91
2022-10-05T21:22:36.261Z,101438.56
2022-10-05T21:25:57.631Z,101438.69
2022-10-05T21:29:18.973Z,101432.22
2022-10-05T21:32:44.438Z,101431.78
2022-10-05T21:36:07.128Z,101433.34
2022-10-05T21:39:28.909Z,101441.81
2022-10-05T21:42:50.711Z,101443.09
2022-10-05T21:46:14.154Z,101442.66
2022-10-05T21:49:37.638Z,101446.94
2022-10-05T21:53:00.605Z,101451.84
2022-10-05T21:56:26.372Z,101448.06
2022-10-05T21:59:48.032Z,101453.28
2022-10-05T22:03:09.435Z,101454.00
2022-10-05T22:06:32.574Z,101460.19
2022-10-05T22:09:53.818Z,101464.44
2022-10-05T22:13:16.074Z,101458.50
2022-10-05T22:16:40.411Z,101459.91
2022-10-05T22:20:02.239Z,101456.13
2022-10-05T22:23:25.256Z,101462.31
2022-10-05T22:26:51.326Z,101457.81
2022-10-05T22:30:14.723Z,101459.34
2022-10-05T22:33:36.986Z,101461.91
2022-10-05T22:36:59.387Z,101470.63
2022-10-05T22:40:22.255Z,101459.63
2022-10-05T22:43:44.081Z,101469.66
2022-10-05T22:47:05.504Z,101462.31
2022-10-05T22:50:27.203Z,101470.94
2022-10-05T22:53:48.837Z,101478.41
2022-10-05T22:57:12.005Z,101478.13
2022-10-05T23:00:56.433Z,101483.06
2022-10-05T23:04:15.039Z,101487.44
2022-10-05T23:07:37.805Z,101489.84
2022-10-05T23:11:03.595Z,101497.59
2022-10-05T23:14:26.971Z,101497.44
2022-10-05T23:17:48.655Z,101499.00
2022-10-05T23:21:11.086Z,101507.88
2022-10-05T23:24:32.558Z,101506.59
2022-10-05T23:27:53.859Z,101509.28
2022-10-05T23:31:18.538Z,101512.81
2022-10-05T23:34:40.154Z,101517.78
2022-10-05T23:38:01.427Z,101512.94
2022-10-05T23:41:22.879Z,101512.94
2022-10-05T23:44:44.334Z,101520.72
2022-10-05T23:48:07.607Z,101518.72
2022-10-05T23:51:29.061Z,101524.66
2022-10-05T23:54:50.837Z,101529.88
2022-10-05T23:58:13.835Z,101522.97
